createdAt,value
2019-05-03T00:00:12.901Z,95834.70
2019-05-03T00:02:52.287Z,95834.50
2019-05-03T00:05:27.298Z,95830.20
2019-05-03T00:07:55.669Z,95837.01
2019-05-03T00:10:22.859Z,95833.28
2019-05-03T00:12:50.299Z,95837.54
2019-05-03T00:15:21.531Z,95837.34
2019-05-03T00:18:03.672Z,95832.83
2019-05-03T00:20:32.511Z,95831.47
2019-05-03T00:22:59.736Z,95831.09
2019-05-03T00:25:26.943Z,95824.85
2019-05-03T00:27:53.987Z,95831.87
2019-05-03T00:30:22.550Z,95830.55
2019-05-03T00:32:52.007Z,95828.05
2019-05-03T00:35:31.926Z,95826.51
2019-05-03T00:38:02.055Z,95827.67
2019-05-03T00:40:29.328Z,95821.97
2019-05-03T00:42:57.210Z,95824.65
2019-05-03T00:45:24.728Z,95830.05
2019-05-03T00:47:52.844Z,95819.66
2019-05-03T00:50:20.096Z,95820.34
2019-05-03T00:52:47.199Z,95825.53
2019-05-03T00:55:16.952Z,95821.38
2019-05-03T00:57:43.183Z,95827.34
2019-05-03T01:00:12.369Z,95828.88
2019-05-03T01:02:39.590Z,95825.57
2019-05-03T01:05:07.247Z,95819.33
2019-05-03T01:07:34.195Z,95824.58
2019-05-03T01:10:02.700Z,95820.28
2019-05-03T01:12:32.184Z,95820.28
2019-05-03T01:15:02.088Z,95813.82
2019-05-03T01:17:31.728Z,95826.02
2019-05-03T01:19:58.900Z,95823.22
2019-05-03T01:22:26.259Z,95813.64
2019-05-03T01:24:53.637Z,95810.70
2019-05-03T01:27:21.973Z,95806.83
2019-05-03T01:29:49.450Z,95811.49
2019-05-03T01:32:16.746Z,95797.87
2019-05-03T01:34:44.156Z,95796.30
2019-05-03T01:37:12.001Z,95797.06
2019-05-03T01:39:42.113Z,95804.61
2019-05-03T01:42:11.951Z,95801.22
2019-05-03T01:44:42.636Z,95792.77
2019-05-03T01:47:19.045Z,95802.19
2019-05-03T01:49:45.939Z,95794.36
2019-05-03T01:52:25.038Z,95791.56
2019-05-03T01:54:53.195Z,95776.41
2019-05-03T01:57:22.093Z,95791.01
2019-05-03T01:59:52.089Z,95785.27
2019-05-03T02:02:27.200Z,95761.20
2019-05-03T02:05:15.310Z,95767.20
2019-05-03T02:07:43.732Z,95787.34
2019-05-03T02:10:11.903Z,95751.64
2019-05-03T02:12:39.166Z,95781.29
2019-05-03T02:15:06.827Z,95747.34
2019-05-03T02:17:33.925Z,95772.73
2019-05-03T02:20:02.315Z,95768.77
2019-05-03T02:22:29.373Z,95748.08
2019-05-03T02:24:56.543Z,95748.08
2019-05-03T02:27:23.627Z,95764.13
2019-05-03T02:29:52.396Z,95766.14
2019-05-03T02:32:23.337Z,95763.90
2019-05-03T02:34:53.269Z,95749.06
2019-05-03T02:37:22.372Z,95749.06
2019-05-03T02:39:56.175Z,95774.88
2019-05-03T02:42:26.298Z,95777.95
2019-05-03T02:44:55.193Z,95775.77
2019-05-03T02:47:26.322Z,95778.27
2019-05-03T02:49:56.232Z,95777.48
2019-05-03T02:52:37.251Z,95772.41
2019-05-03T02:55:08.563Z,95774.52
2019-05-03T02:57:37.814Z,95771.16
2019-05-03T03:00:09.531Z,95766.25
2019-05-03T03:02:38.863Z,95761.53
2019-05-03T03:05:07.395Z,95765.97
2019-05-03T03:07:37.728Z,95760.31
2019-05-03T03:10:06.714Z,95755.45
2019-05-03T03:12:35.697Z,95768.83
2019-05-03T03:15:06.346Z,95770.92
2019-05-03T03:17:36.419Z,95763.28
2019-05-03T03:20:06.130Z,95762.35
2019-05-03T03:22:40.520Z,95769.50
2019-05-03T03:25:09.855Z,95771.03
2019-05-03T03:27:38.860Z,95769.02
2019-05-03T03:30:29.988Z,95770.95
2019-05-03T03:32:59.697Z,95769.02
2019-05-03T03:35:31.896Z,95770.81
2019-05-03T03:37:59.304Z,95773.43
2019-05-03T03:40:28.732Z,95774.08
2019-05-03T03:42:56.265Z,95776.40
2019-05-03T03:45:25.414Z,95774.83
2019-05-03T03:47:55.807Z,95785.30
2019-05-03T03:50:25.817Z,95779.44
2019-05-03T03:52:55.741Z,95762.12
2019-05-03T03:55:26.518Z,95762.12
2019-05-03T03:57:55.449Z,95783.65
2019-05-03T04:00:21.919Z,95786.94
2019-05-03T04:02:49.259Z,95791.80
2019-05-03T04:05:16.273Z,95787.51
2019-05-03T04:07:46.180Z,95786.36
2019-05-03T04:10:15.682Z,95788.47
2019-05-03T04:12:45.608Z,95794.39
2019-05-03T04:15:16.265Z,95802.54
2019-05-03T04:17:51.056Z,95802.89
2019-05-03T04:20:25.425Z,95802.11
2019-05-03T04:22:51.666Z,95798.47
2019-05-03T04:25:18.763Z,95804.76
2019-05-03T04:27:46.184Z,95803.62
2019-05-03T04:30:16.201Z,95805.38
2019-05-03T04:32:42.421Z,95803.66
2019-05-03T04:35:09.764Z,95810.74
2019-05-03T04:37:36.797Z,95811.78
2019-05-03T04:40:06.230Z,95813.98
2019-05-03T04:42:35.673Z,95817.34
2019-05-03T04:45:05.891Z,95814.09
2019-05-03T04:47:35.607Z,95808.16
2019-05-03T04:50:05.627Z,95809.98
2019-05-03T04:52:32.666Z,95816.28
2019-05-03T04:55:01.214Z,95820.82
2019-05-03T04:57:39.865Z,95818.53
2019-05-03T04:59:57.549Z,95821.08
2019-05-03T05:02:26.449Z,95824.66
2019-05-03T05:04:55.522Z,95824.66
2019-05-03T05:07:22.699Z,95823.33
2019-05-03T05:09:49.704Z,95825.11
2019-05-03T05:12:17.044Z,95828.27
2019-05-03T05:14:45.749Z,95828.48
2019-05-03T05:17:16.379Z,95829.05
2019-05-03T05:19:48.509Z,95831.91
2019-05-03T05:22:17.841Z,95836.99
2019-05-03T05:24:45.364Z,95832.41
2019-05-03T05:27:20.070Z,95831.52
2019-05-03T05:29:47.031Z,95834.13
2019-05-03T05:32:14.434Z,95840.41
2019-05-03T05:34:42.911Z,95836.94
2019-05-03T05:37:11.591Z,95843.02
2019-05-03T05:39:38.768Z,95839.34
2019-05-03T05:42:05.815Z,95842.48
2019-05-03T05:44:35.095Z,95849.92
2019-05-03T05:47:14.908Z,95851.86
2019-05-03T05:49:55.583Z,95851.07
2019-05-03T05:52:24.512Z,95820.42
2019-05-03T05:55:10.448Z,95829.52
2019-05-03T05:57:39.694Z,95845.89
2019-05-03T06:00:12.575Z,95867.79
2019-05-03T06:02:39.589Z,95842.28
2019-05-03T06:05:07.001Z,95842.28
2019-05-03T06:07:38.856Z,95867.96
2019-05-03T06:10:10.750Z,95856.13
2019-05-03T06:12:56.617Z,95865.61
2019-05-03T06:15:35.678Z,95852.65
2019-05-03T06:18:19.779Z,95864.20
2019-05-03T06:20:46.614Z,95864.20
2019-05-03T06:23:24.850Z,95868.52
2019-05-03T06:25:54.165Z,95879.33
2019-05-03T06:28:25.066Z,95879.33
2019-05-03T06:30:51.859Z,95891.03
2019-05-03T06:33:18.886Z,95865.55
2019-05-03T06:35:45.918Z,95865.55
2019-05-03T06:38:15.126Z,95847.98
2019-05-03T06:40:42.072Z,95851.33
2019-05-03T06:43:12.679Z,95851.33
2019-05-03T06:45:41.198Z,95856.91
2019-05-03T06:48:06.782Z,95857.30
2019-05-03T06:50:34.778Z,95889.58
2019-05-03T06:53:05.850Z,95866.75
2019-05-03T06:55:30.668Z,95877.73
2019-05-03T06:57:57.615Z,95874.61
2019-05-03T07:00:26.663Z,95874.61
2019-05-03T07:02:55.686Z,95899.98
2019-05-03T07:05:25.688Z,95899.98
2019-05-03T07:07:55.016Z,95898.86
2019-05-03T07:10:24.961Z,95893.75
2019-05-03T07:12:56.581Z,95904.22
2019-05-03T07:15:25.207Z,95903.08
2019-05-03T07:17:52.516Z,95911.63
2019-05-03T07:20:22.074Z,95917.08
2019-05-03T07:22:49.027Z,95915.72
2019-05-03T07:25:15.947Z,95919.08
2019-05-03T07:27:42.901Z,95926.70
2019-05-03T07:30:10.318Z,95931.63
2019-05-03T07:32:39.888Z,95943.34
2019-05-03T07:35:07.695Z,95938.56
2019-05-03T07:37:34.976Z,95944.25
2019-05-03T07:40:04.756Z,95946.25
2019-05-03T07:42:31.939Z,95952.13
2019-05-03T07:44:59.324Z,95953.63
2019-05-03T07:47:26.410Z,95953.42
2019-05-03T07:49:54.694Z,95947.47
2019-05-03T07:52:21.867Z,95938.03
2019-05-03T07:54:48.924Z,95942.72
2019-05-03T07:57:28.059Z,95940.41
2019-05-03T07:59:55.664Z,95946.50
2019-05-03T08:02:25.170Z,95944.80
2019-05-03T08:04:51.755Z,95945.67
2019-05-03T08:07:22.346Z,95944.97
2019-05-03T08:09:47.699Z,95947.78
2019-05-03T08:12:15.394Z,95943.17
2019-05-03T08:14:44.581Z,95940.69
2019-05-03T08:17:11.657Z,95940.38
2019-05-03T08:19:38.699Z,95916.14
2019-05-03T08:22:06.130Z,95933.88
2019-05-03T08:24:34.650Z,95933.58
2019-05-03T08:27:02.002Z,95946.75
2019-05-03T08:29:29.026Z,95943.73
2019-05-03T08:32:00.917Z,95941.28
2019-05-03T08:34:30.184Z,95944.44
2019-05-03T08:37:05.144Z,95944.50
2019-05-03T08:39:32.763Z,95938.94
2019-05-03T08:42:02.020Z,95935.91
2019-05-03T08:44:29.559Z,95929.42
2019-05-03T08:46:57.504Z,95931.05
2019-05-03T08:49:25.504Z,95928.63
2019-05-03T08:51:54.905Z,95926.59
2019-05-03T08:54:22.258Z,95918.88
2019-05-03T08:56:49.567Z,95918.56
2019-05-03T08:59:29.040Z,95914.14
2019-05-03T09:01:45.803Z,95917.14
2019-05-03T09:04:13.071Z,95918.97
2019-05-03T09:06:55.096Z,95923.11
2019-05-03T09:09:25.438Z,95930.20
2019-05-03T09:11:52.775Z,95930.39
2019-05-03T09:14:20.099Z,95934.72
2019-05-03T09:16:47.011Z,95930.20
2019-05-03T09:19:14.781Z,95930.20
2019-05-03T09:21:42.288Z,95926.48
2019-05-03T09:24:09.389Z,95925.09
2019-05-03T09:26:36.569Z,95922.16
2019-05-03T09:29:05.489Z,95919.81
2019-05-03T09:31:32.651Z,95914.52
2019-05-03T09:33:59.592Z,95914.50
2019-05-03T09:36:26.949Z,95909.00
2019-05-03T09:38:54.981Z,95912.33
2019-05-03T09:41:22.093Z,95917.59
2019-05-03T09:43:49.006Z,95919.72
2019-05-03T09:46:16.618Z,95911.63
2019-05-03T09:48:45.501Z,95920.61
2019-05-03T09:51:14.706Z,95911.60
2019-05-03T09:53:44.658Z,95916.30
2019-05-03T09:56:11.883Z,95914.38
2019-05-03T09:58:38.955Z,95919.47
2019-05-03T10:01:08.357Z,95922.21
2019-05-03T10:03:36.559Z,95918.13
2019-05-03T10:06:04.175Z,95918.55
2019-05-03T10:08:31.212Z,95919.52
2019-05-03T10:11:10.215Z,95915.41
2019-05-03T10:13:37.855Z,95916.39
2019-05-03T10:16:06.151Z,95914.63
2019-05-03T10:18:35.003Z,95917.01
2019-05-03T10:21:03.144Z,95914.06
2019-05-03T10:23:35.727Z,95916.64
2019-05-03T10:26:05.064Z,95914.68
2019-05-03T10:28:32.629Z,95915.27
2019-05-03T10:31:00.458Z,95916.05
2019-05-03T10:33:32.214Z,95918.18
2019-05-03T10:35:59.318Z,95920.31
2019-05-03T10:38:26.480Z,95918.55
2019-05-03T10:40:55.013Z,95912.05
2019-05-03T10:43:24.658Z,95910.66
2019-05-03T10:45:51.411Z,95906.70
2019-05-03T10:48:18.523Z,95912.15
2019-05-03T10:50:45.569Z,95911.88
2019-05-03T10:53:15.418Z,95909.48
2019-05-03T10:55:45.652Z,95902.88
2019-05-03T10:58:12.620Z,95911.60
2019-05-03T11:00:46.201Z,95908.30
2019-05-03T11:03:11.375Z,95911.94
2019-05-03T11:05:38.332Z,95908.36
2019-05-03T11:08:05.491Z,95909.78
2019-05-03T11:10:32.511Z,95904.75
2019-05-03T11:12:59.485Z,95902.67
2019-05-03T11:15:26.633Z,95904.50
2019-05-03T11:17:54.868Z,95909.27
2019-05-03T11:20:34.624Z,95914.44
2019-05-03T11:23:05.978Z,95911.63
2019-05-03T11:25:34.498Z,95919.16
2019-05-03T11:28:04.883Z,95915.28
2019-05-03T11:30:32.184Z,95916.14
2019-05-03T11:33:01.133Z,95909.93
2019-05-03T11:35:45.544Z,95912.30
2019-05-03T11:38:15.060Z,95925.42
2019-05-03T11:40:42.437Z,95938.34
2019-05-03T11:43:09.480Z,95923.28
2019-05-03T11:45:36.760Z,95924.52
2019-05-03T11:48:03.882Z,95941.92
2019-05-03T11:50:30.963Z,95948.31
2019-05-03T11:52:57.882Z,95955.58
2019-05-03T11:55:26.871Z,95961.63
2019-05-03T11:57:53.764Z,95958.91
2019-05-03T12:00:25.255Z,95965.53
2019-05-03T12:02:57.543Z,95967.07
2019-05-03T12:05:26.363Z,95968.10
2019-05-03T12:07:54.752Z,95981.63
2019-05-03T12:10:37.321Z,95989.90
2019-05-03T12:13:00.383Z,95998.37
2019-05-03T12:15:27.823Z,95996.93
2019-05-03T12:18:06.917Z,96007.34
2019-05-03T12:20:37.110Z,96004.01
2019-05-03T12:23:06.069Z,96008.41
2019-05-03T12:25:35.705Z,96008.32
2019-05-03T12:28:05.621Z,96011.53
2019-05-03T12:30:31.467Z,96017.32
2019-05-03T12:32:58.496Z,96013.08
2019-05-03T12:35:25.538Z,96028.94
2019-05-03T12:37:52.459Z,96020.97
2019-05-03T12:40:19.514Z,96021.66
2019-05-03T12:42:46.703Z,96020.98
2019-05-03T12:45:15.231Z,96036.67
2019-05-03T12:47:42.631Z,96041.87
2019-05-03T12:50:10.214Z,96033.60
2019-05-03T12:52:49.554Z,96042.30
2019-05-03T12:55:07.118Z,96043.45
2019-05-03T12:57:34.772Z,96048.47
2019-05-03T13:00:27.292Z,96045.53
2019-05-03T13:02:56.361Z,96048.25
2019-05-03T13:05:24.884Z,96049.57
2019-05-03T13:08:11.328Z,96050.22
2019-05-03T13:10:38.374Z,96055.76
2019-05-03T13:13:05.387Z,96055.78
2019-05-03T13:15:32.431Z,96059.03
2019-05-03T13:17:59.541Z,96038.66
2019-05-03T13:20:26.792Z,96051.63
2019-05-03T13:22:55.822Z,96055.75
2019-05-03T13:25:22.538Z,96056.55
2019-05-03T13:27:49.588Z,96038.05
2019-05-03T13:30:17.044Z,96062.70
2019-05-03T13:32:45.717Z,96062.70
2019-05-03T13:35:14.969Z,96038.92
2019-05-03T13:37:41.964Z,96053.70
2019-05-03T13:40:09.381Z,96064.58
2019-05-03T13:42:36.733Z,96069.02
2019-05-03T13:45:07.275Z,96069.02
2019-05-03T13:47:35.107Z,96066.95
2019-05-03T13:50:05.268Z,96047.66
2019-05-03T13:52:34.456Z,96047.66
2019-05-03T13:55:01.118Z,96072.03
2019-05-03T13:57:28.371Z,96073.75
2019-05-03T13:59:55.581Z,96067.66
2019-05-03T14:02:22.853Z,96068.58
2019-05-03T14:04:52.813Z,96059.23
2019-05-03T14:07:19.347Z,96025.22
2019-05-03T14:09:46.275Z,96053.58
2019-05-03T14:12:15.288Z,96035.91
2019-05-03T14:14:56.063Z,96035.91
2019-05-03T14:17:25.347Z,96069.76
2019-05-03T14:19:54.571Z,96069.76
2019-05-03T14:22:26.361Z,96071.47
2019-05-03T14:24:53.312Z,96052.75
2019-05-03T14:27:20.651Z,96070.47
2019-05-03T14:29:47.605Z,96070.47
2019-05-03T14:32:25.837Z,96053.73
2019-05-03T14:34:45.372Z,96081.20
2019-05-03T14:37:12.483Z,96048.38
2019-05-03T14:39:39.548Z,96079.41
2019-05-03T14:42:06.724Z,96086.22
2019-05-03T14:44:35.754Z,96076.26
2019-05-03T14:47:05.603Z,96079.55
2019-05-03T14:49:32.092Z,96066.70
2019-05-03T14:51:58.992Z,96072.75
2019-05-03T14:54:27.907Z,96077.84
2019-05-03T14:56:59.353Z,96080.55
2019-05-03T14:59:35.457Z,96079.20
2019-05-03T15:02:15.581Z,96080.55
2019-05-03T15:04:42.791Z,96075.69
2019-05-03T15:07:09.715Z,96084.64
2019-05-03T15:09:36.795Z,96080.70
2019-05-03T15:12:05.308Z,96080.70
2019-05-03T15:14:34.487Z,96077.27
2019-05-03T15:17:01.569Z,96077.27
2019-05-03T15:19:28.460Z,96089.50
2019-05-03T15:21:55.595Z,96094.86
2019-05-03T15:24:22.604Z,96101.04
2019-05-03T15:26:49.607Z,96104.69
2019-05-03T15:29:16.544Z,96097.45
2019-05-03T15:31:44.763Z,96099.55
2019-05-03T15:34:11.874Z,96102.62
2019-05-03T15:36:38.911Z,96102.53
2019-05-03T15:39:06.643Z,96109.50
2019-05-03T15:41:35.192Z,96104.63
2019-05-03T15:44:17.835Z,96110.77
2019-05-03T15:46:46.750Z,96100.03
2019-05-03T15:49:15.233Z,96107.21
2019-05-03T15:51:44.589Z,96098.84
2019-05-03T15:54:11.942Z,96101.55
2019-05-03T15:56:38.892Z,96105.85
2019-05-03T15:59:06.218Z,96100.55
2019-05-03T16:01:35.168Z,96105.98
2019-05-03T16:04:02.416Z,96110.63
2019-05-03T16:06:29.561Z,96109.27
2019-05-03T16:08:56.606Z,96107.13
2019-05-03T16:11:25.361Z,96105.20
2019-05-03T16:13:52.655Z,96106.12
2019-05-03T16:16:20.035Z,96107.48
2019-05-03T16:18:47.251Z,96113.70
2019-05-03T16:21:14.679Z,96113.70
2019-05-03T16:23:42.044Z,96114.05
2019-05-03T16:26:09.151Z,96112.28
2019-05-03T16:28:41.082Z,96113.42
2019-05-03T16:31:12.683Z,96116.71
2019-05-03T16:33:39.745Z,96125.22
2019-05-03T16:36:06.669Z,96119.13
2019-05-03T16:38:35.428Z,96130.78
2019-05-03T16:41:02.800Z,96131.36
2019-05-03T16:43:29.687Z,96136.79
2019-05-03T16:45:56.892Z,96135.02
2019-05-03T16:48:24.746Z,96138.72
2019-05-03T16:50:51.941Z,96134.30
2019-05-03T16:53:19.144Z,96140.39
2019-05-03T16:55:46.189Z,96140.39
2019-05-03T16:58:16.471Z,96140.52
2019-05-03T17:00:42.183Z,96151.55
2019-05-03T17:03:09.287Z,96157.34
2019-05-03T17:05:55.257Z,96150.10
2019-05-03T17:08:25.106Z,96149.82
2019-05-03T17:11:12.132Z,96143.51
2019-05-03T17:13:39.060Z,96140.34
2019-05-03T17:16:06.886Z,96141.23
2019-05-03T17:18:35.293Z,96141.86
2019-05-03T17:21:04.719Z,96145.23
2019-05-03T17:23:31.667Z,96148.39
2019-05-03T17:25:58.807Z,96146.95
2019-05-03T17:28:25.706Z,96150.67
2019-05-03T17:30:52.621Z,96150.80
2019-05-03T17:33:19.639Z,96154.09
2019-05-03T17:35:46.697Z,96156.11
2019-05-03T17:38:13.810Z,96153.17
2019-05-03T17:40:48.340Z,96161.10
2019-05-03T17:43:20.135Z,96156.67
2019-05-03T17:45:51.598Z,96163.69
2019-05-03T17:48:18.621Z,96166.91
2019-05-03T17:50:45.749Z,96167.39
2019-05-03T17:53:14.629Z,96169.04
2019-05-03T17:55:46.252Z,96169.07
2019-05-03T17:58:15.179Z,96178.98
2019-05-03T18:00:58.961Z,96183.91
2019-05-03T18:03:27.705Z,96180.56
2019-05-03T18:05:59.561Z,96181.13
2019-05-03T18:08:29.312Z,96186.34
2019-05-03T18:10:58.322Z,96190.42
2019-05-03T18:13:25.317Z,96194.27
2019-05-03T18:15:54.244Z,96188.05
2019-05-03T18:18:21.171Z,96194.96
2019-05-03T18:20:48.035Z,96183.47
2019-05-03T18:23:15.410Z,96190.25
2019-05-03T18:25:44.570Z,96192.74
2019-05-03T18:28:11.677Z,96198.30
2019-05-03T18:30:38.757Z,96204.80
2019-05-03T18:33:05.657Z,96204.25
2019-05-03T18:35:32.792Z,96209.95
2019-05-03T18:38:00.825Z,96208.50
2019-05-03T18:40:29.257Z,96210.56
2019-05-03T18:42:56.329Z,96213.28
2019-05-03T18:45:31.185Z,96216.00
2019-05-03T18:47:58.286Z,96217.13
2019-05-03T18:50:25.525Z,96218.27
2019-05-03T18:52:52.599Z,96220.76
2019-05-03T18:55:19.610Z,96226.98
2019-05-03T18:57:46.909Z,96226.41
2019-05-03T19:00:15.306Z,96231.05
2019-05-03T19:02:44.409Z,96227.55
2019-05-03T19:05:11.489Z,96222.11
2019-05-03T19:07:45.233Z,96229.00
2019-05-03T19:10:15.391Z,96229.08
2019-05-03T19:12:47.192Z,96228.96
2019-05-03T19:15:14.611Z,96224.54
2019-05-03T19:17:43.566Z,96225.33
2019-05-03T19:20:12.776Z,96230.42
2019-05-03T19:22:40.010Z,96228.27
2019-05-03T19:25:07.447Z,96233.59
2019-05-03T19:27:34.695Z,96229.30
2019-05-03T19:30:04.740Z,96231.38
2019-05-03T19:32:31.728Z,96229.00
2019-05-03T19:34:59.882Z,96235.00
2019-05-03T19:37:27.030Z,96235.56
2019-05-03T19:39:55.223Z,96230.03
2019-05-03T19:42:24.470Z,96230.75
2019-05-03T19:44:51.529Z,96235.70
2019-05-03T19:47:18.578Z,96235.92
2019-05-03T19:49:45.485Z,96232.67
2019-05-03T19:52:14.531Z,96228.34
2019-05-03T19:54:41.749Z,96230.41
2019-05-03T19:57:09.631Z,96225.63
2019-05-03T19:59:56.415Z,96221.43
2019-05-03T20:02:42.409Z,96215.33
2019-05-03T20:05:15.707Z,96210.19
2019-05-03T20:07:45.225Z,96212.27
2019-05-03T20:10:14.515Z,96213.56
2019-05-03T20:12:41.777Z,96222.95
2019-05-03T20:15:09.290Z,96219.14
2019-05-03T20:17:36.290Z,96214.20
2019-05-03T20:20:06.723Z,96219.30
2019-05-03T20:22:35.114Z,96222.27
2019-05-03T20:25:04.780Z,96220.00
2019-05-03T20:27:31.867Z,96218.57
2019-05-03T20:29:59.138Z,96216.77
2019-05-03T20:32:26.444Z,96222.86
2019-05-03T20:34:55.146Z,96218.94
2019-05-03T20:37:22.414Z,96209.56
2019-05-03T20:39:50.048Z,96205.27
2019-05-03T20:42:19.314Z,96208.89
2019-05-03T20:44:49.503Z,96216.45
2019-05-03T20:47:28.111Z,96216.83
2019-05-03T20:50:15.302Z,96210.95
2019-05-03T20:52:44.468Z,96213.66
2019-05-03T20:55:12.314Z,96209.70
2019-05-03T20:57:39.636Z,96207.34
2019-05-03T21:00:09.167Z,96200.13
2019-05-03T21:02:36.193Z,96195.50
2019-05-03T21:05:07.715Z,96188.95
2019-05-03T21:07:35.231Z,96197.34
2019-05-03T21:10:06.062Z,96197.47
2019-05-03T21:12:34.645Z,96198.71
2019-05-03T21:15:07.114Z,96202.36
2019-05-03T21:17:45.182Z,96200.20
2019-05-03T21:20:31.152Z,96200.88
2019-05-03T21:22:58.031Z,96197.72
2019-05-03T21:25:27.138Z,96199.52
2019-05-03T21:27:55.511Z,96199.19
2019-05-03T21:30:24.579Z,96198.63
2019-05-03T21:32:51.983Z,96188.46
2019-05-03T21:35:20.608Z,96193.91
2019-05-03T21:37:47.603Z,96196.17
2019-05-03T21:40:15.627Z,96200.26
2019-05-03T21:42:42.674Z,96195.52
2019-05-03T21:45:11.786Z,96199.58
2019-05-03T21:47:46.184Z,96189.30
2019-05-03T21:50:15.229Z,96195.20
2019-05-03T21:52:42.251Z,96191.02
2019-05-03T21:55:09.585Z,96194.98
2019-05-03T21:57:36.646Z,96197.56
2019-05-03T22:00:09.482Z,96200.38
2019-05-03T22:02:36.622Z,96203.22
2019-05-03T22:05:04.452Z,96211.92
2019-05-03T22:07:31.346Z,96214.50
2019-05-03T22:09:58.283Z,96208.20
2019-05-03T22:12:25.353Z,96215.53
2019-05-03T22:14:54.559Z,96209.09
2019-05-03T22:17:40.371Z,96210.45
2019-05-03T22:20:16.254Z,96212.59
2019-05-03T22:22:48.331Z,96208.87
2019-05-03T22:25:17.287Z,96213.48
2019-05-03T22:27:45.535Z,96214.05
2019-05-03T22:30:13.209Z,96216.53
2019-05-03T22:32:40.371Z,96211.58
2019-05-03T22:35:07.486Z,96213.83
2019-05-03T22:37:35.410Z,96220.70
2019-05-03T22:40:05.344Z,96219.80
2019-05-03T22:42:34.434Z,96213.04
2019-05-03T22:45:01.558Z,96210.33
2019-05-03T22:47:28.957Z,96209.20
2019-05-03T22:49:55.890Z,96214.85
2019-05-03T22:52:22.827Z,96207.52
2019-05-03T22:54:49.979Z,96210.66
2019-05-03T22:57:16.967Z,96206.17
2019-05-03T22:59:44.872Z,96204.36
2019-05-03T23:02:12.195Z,96202.75
2019-05-03T23:04:39.759Z,96196.91
2019-05-03T23:07:06.754Z,96196.88
2019-05-03T23:09:35.242Z,96198.33
2019-05-03T23:12:02.669Z,96193.70
2019-05-03T23:14:29.773Z,96197.28
2019-05-03T23:16:56.684Z,96201.67
2019-05-03T23:19:23.529Z,96197.71
2019-05-03T23:22:07.586Z,96197.34
2019-05-03T23:24:35.639Z,96196.64
2019-05-03T23:27:04.843Z,96197.89
2019-05-03T23:29:32.313Z,96192.91
2019-05-03T23:31:59.229Z,96189.54
2019-05-03T23:34:26.153Z,96183.66
2019-05-03T23:36:54.789Z,96184.45
2019-05-03T23:39:22.086Z,96189.40
2019-05-03T23:41:49.130Z,96188.17
2019-05-03T23:44:16.276Z,96183.89
2019-05-03T23:46:48.119Z,96181.05
2019-05-03T23:49:16.045Z,96187.11
2019-05-03T23:51:51.011Z,96180.34
2019-05-03T23:54:18.212Z,96179.59
2019-05-03T23:56:47.234Z,96172.78
2019-05-03T23:59:15.019Z,96173.00
